Time;durP1;ratioP1;P1;durP2;ratioP2;P2;SDS_P1;SDS_P2;PMS_P1;PMS_P2;Temp;Humidity;BMP_temperature;BMP_pressure;BME280_temperature;BME280_humidity;BME280_pressure;Samples;Min_cycle;Max_cycle;Signal;HPM_P1;HPM_P2
2022/02/08 00:00:27;;;;;;;18.65;7.65;;;5.80;99.90;;;;;;5095149;28;20024;-64
2022/02/08 00:02:56;;;;;;;19.45;7.32;;;5.80;99.90;;;;;;5095650;28;20024;-65
2022/02/08 00:05:23;;;;;;;16.70;6.80;;;5.80;99.90;;;;;;5095175;28;20032;-65
2022/02/08 00:07:52;;;;;;;15.73;7.10;;;5.80;99.90;;;;;;5095443;28;20036;-64
2022/02/08 00:10:19;;;;;;;18.02;8.05;;;5.80;99.90;;;;;;5095474;28;21083;-65
2022/02/08 00:12:44;;;;;;;20.92;6.70;;;5.80;99.90;;;;;;5095590;28;20028;-65
2022/02/08 00:15:10;;;;;;;18.98;6.80;;;5.90;99.90;;;;;;5095234;28;20104;-65
2022/02/08 00:17:36;;;;;;;18.00;7.95;;;5.90;99.90;;;;;;5095421;28;20036;-64
2022/02/08 00:20:06;;;;;;;21.23;7.43;;;5.90;99.90;;;;;;5095290;28;20081;-64
2022/02/08 00:22:32;;;;;;;16.27;6.60;;;5.80;99.90;;;;;;5095548;28;20205;-64
2022/02/08 00:24:58;;;;;;;19.25;7.00;;;5.90;99.90;;;;;;5095032;28;20127;-65
2022/02/08 00:27:23;;;;;;;19.50;6.80;;;5.90;99.90;;;;;;5095551;28;20055;-65
2022/02/08 00:29:49;;;;;;;21.05;7.18;;;5.90;99.90;;;;;;5095477;28;20540;-63
2022/02/08 00:32:15;;;;;;;19.10;7.50;;;5.90;99.90;;;;;;5076955;28;20035;-64
2022/02/08 00:34:41;;;;;;;16.88;7.03;;;5.90;99.90;;;;;;5095370;28;20024;-63
2022/02/08 00:37:06;;;;;;;17.48;6.38;;;5.90;99.90;;;;;;5095131;28;20027;-63
2022/02/08 00:39:33;;;;;;;22.77;7.70;;;6.00;99.90;;;;;;5095018;28;20024;-64
2022/02/08 00:42:04;;;;;;;22.10;7.00;;;5.90;99.90;;;;;;5092402;28;20097;-65
2022/02/08 00:44:39;;;;;;;19.83;7.15;;;5.90;99.90;;;;;;5077496;28;20033;-64
2022/02/08 00:49:46;;;;;;;16.67;7.53;;;5.90;99.90;;;;;;5086850;28;20059;-65
2022/02/08 00:52:15;;;;;;;21.73;7.15;;;5.90;99.90;;;;;;5079148;28;20045;-65
2022/02/08 00:54:47;;;;;;;22.70;7.10;;;5.90;99.90;;;;;;5077512;28;20027;-64
2022/02/08 00:57:13;;;;;;;14.95;6.53;;;5.90;99.90;;;;;;5078184;28;20031;-64
2022/02/08 00:59:39;;;;;;;22.40;7.55;;;5.80;99.90;;;;;;5078201;28;20441;-65
2022/02/08 01:02:06;;;;;;;22.95;7.45;;;5.70;99.90;;;;;;5078134;28;20104;-64
2022/02/08 01:04:33;;;;;;;22.13;8.07;;;5.70;99.90;;;;;;5059783;28;20025;-66
2022/02/08 01:06:59;;;;;;;25.10;8.43;;;5.70;99.90;;;;;;5075056;28;20025;-64
2022/02/08 01:10:09;;;;;;;18.45;7.22;;;5.70;99.90;;;;;;5056962;28;20507;-65
2022/02/08 01:12:15;;;;;;;18.05;7.78;;;5.60;99.90;;;;;;5069214;28;20123;-65
2022/02/08 01:14:43;;;;;;;20.77;8.82;;;5.60;99.90;;;;;;5056726;28;20021;-64
2022/02/08 01:17:10;;;;;;;20.35;7.57;;;5.70;99.90;;;;;;5074580;28;20047;-65
2022/02/08 01:19:44;;;;;;;20.40;8.27;;;5.70;99.90;;;;;;5074964;28;20381;-64
2022/02/08 01:22:10;;;;;;;22.05;8.30;;;5.80;99.90;;;;;;5074685;28;20020;-64
2022/02/08 01:24:35;;;;;;;24.60;7.47;;;5.80;99.90;;;;;;5056600;28;20036;-64
2022/02/08 01:27:06;;;;;;;21.48;7.18;;;5.90;99.90;;;;;;5074699;28;20017;-64
2022/02/08 01:48:00;;;;;;;23.33;8.95;;;5.90;99.90;;;;;;5074084;28;20370;-65
2022/02/08 01:50:27;;;;;;;20.83;7.68;;;5.80;99.90;;;;;;5074079;28;20028;-64
2022/02/08 01:52:52;;;;;;;24.80;8.80;;;5.80;99.90;;;;;;5074086;28;20182;-63
2022/02/08 01:55:18;;;;;;;19.20;7.55;;;5.80;99.90;;;;;;5073608;28;20052;-65
2022/02/08 01:57:45;;;;;;;22.35;7.97;;;5.80;99.90;;;;;;5055975;28;20069;-65
2022/02/08 02:00:13;;;;;;;23.45;8.20;;;5.80;99.90;;;;;;5073833;28;20021;-63
2022/02/08 02:02:39;;;;;;;20.40;7.82;;;5.90;99.90;;;;;;5073768;28;20039;-64
2022/02/08 02:05:05;;;;;;;22.92;9.00;;;5.90;99.90;;;;;;5073615;28;20506;-64
2022/02/08 02:07:33;;;;;;;21.95;8.35;;;5.90;99.90;;;;;;5073644;28;20032;-64
2022/02/08 02:09:58;;;;;;;27.00;9.80;;;6.00;99.90;;;;;;5073518;28;20031;-64
2022/02/08 02:12:25;;;;;;;23.52;9.77;;;6.10;99.90;;;;;;5055535;28;20029;-64
2022/02/08 02:14:50;;;;;;;29.13;10.27;;;6.00;99.90;;;;;;5073354;28;20016;-64
2022/02/08 02:17:17;;;;;;;22.52;9.27;;;6.10;99.90;;;;;;5073266;28;20576;-64
2022/02/08 02:19:43;;;;;;;27.70;9.30;;;6.20;99.90;;;;;;5072594;28;20048;-64
2022/02/08 02:22:09;;;;;;;29.80;9.73;;;6.20;99.90;;;;;;5073712;28;20055;-65
2022/02/08 02:24:36;;;;;;;25.63;9.88;;;6.20;99.90;;;;;;5073301;28;20449;-63
2022/02/08 02:27:04;;;;;;;23.58;10.30;;;6.20;99.90;;;;;;5073354;28;20020;-65
2022/02/08 02:29:30;;;;;;;29.17;10.93;;;6.10;99.90;;;;;;5073233;28;20017;-65
2022/02/08 02:31:57;;;;;;;28.02;11.02;;;6.00;99.90;;;;;;5055166;28;20451;-64
2022/02/08 02:34:23;;;;;;;25.35;9.60;;;5.90;99.90;;;;;;5072815;28;20036;-64
2022/02/08 02:36:50;;;;;;;26.02;9.77;;;5.90;99.90;;;;;;5073037;28;20028;-64
2022/02/08 02:39:20;;;;;;;23.17;10.50;;;5.80;99.90;;;;;;5072886;28;20027;-64
2022/02/08 02:41:45;;;;;;;24.50;11.25;;;5.80;99.90;;;;;;5073291;28;20182;-64
2022/02/08 02:44:17;;;;;;;46.92;12.07;;;5.80;99.90;;;;;;5072794;28;20299;-64
2022/02/08 02:46:43;;;;;;;28.42;11.80;;;5.80;99.90;;;;;;5072708;28;20483;-65
2022/02/08 02:49:09;;;;;;;28.63;12.10;;;5.80;99.90;;;;;;5054947;28;20060;-65
2022/02/08 02:51:35;;;;;;;34.25;12.88;;;5.80;99.90;;;;;;5072866;28;20025;-64
2022/02/08 02:54:01;;;;;;;28.17;12.52;;;5.80;99.90;;;;;;5072737;28;20099;-64
2022/02/08 02:56:27;;;;;;;26.27;11.45;;;5.80;99.90;;;;;;5072662;28;20024;-64
2022/02/08 02:58:59;;;;;;;25.83;12.88;;;5.80;99.90;;;;;;5072673;28;20021;-64
2022/02/08 03:01:35;;;;;;;27.40;14.73;;;5.80;99.90;;;;;;5072632;28;20032;-64
2022/02/08 03:20:25;;;;;;;29.58;20.08;;;5.60;99.90;;;;;;5072662;28;20036;-64
2022/02/08 03:22:51;;;;;;;38.10;21.73;;;5.50;99.90;;;;;;5072469;28;20392;-67
2022/02/08 03:25:17;;;;;;;34.22;22.52;;;5.50;99.90;;;;;;5054312;28;20587;-63
2022/02/08 03:27:42;;;;;;;38.83;22.83;;;5.50;99.90;;;;;;5054418;28;20021;-64
2022/02/08 03:30:08;;;;;;;33.13;29.50;;;5.50;99.90;;;;;;5071739;28;20036;-63
2022/02/08 03:32:34;;;;;;;39.03;33.72;;;5.50;99.90;;;;;;5071526;28;20165;-64
2022/02/08 03:35:00;;;;;;;46.75;34.97;;;5.50;99.90;;;;;;5071656;28;20169;-64
2022/02/08 03:37:29;;;;;;;37.58;33.53;;;5.50;99.90;;;;;;5072078;28;20021;-64
2022/02/08 03:40:00;;;;;;;38.58;32.67;;;5.50;99.90;;;;;;5072008;28;20027;-64
2022/02/08 03:42:35;;;;;;;41.97;34.80;;;5.50;99.90;;;;;;5072063;28;20017;-64
2022/02/08 03:45:02;;;;;;;40.13;35.42;;;5.50;99.90;;;;;;5071597;28;20392;-63
2022/02/08 03:47:28;;;;;;;40.10;34.97;;;5.50;99.90;;;;;;5071809;28;20066;-67
2022/02/08 03:49:54;;;;;;;40.47;35.78;;;5.50;99.90;;;;;;5072129;28;20040;-63
2022/02/08 03:52:23;;;;;;;41.58;36.35;;;5.60;99.90;;;;;;5053856;28;20020;-64
2022/02/08 03:54:49;;;;;;;41.58;37.00;;;5.60;99.90;;;;;;5071906;28;20070;-63
2022/02/08 03:57:14;;;;;;;44.95;40.03;;;5.60;99.90;;;;;;5072042;28;20024;-63
2022/02/08 03:59:40;;;;;;;53.15;39.20;;;5.60;99.90;;;;;;5071827;28;20024;-61
2022/02/08 04:04:55;;;;;;;41.75;37.20;;;5.70;99.90;;;;;;5071958;28;20439;-63
2022/02/08 04:07:31;;;;;;;42.53;37.95;;;5.80;99.90;;;;;;5071658;28;20435;-63
2022/02/08 04:10:03;;;;;;;41.53;37.38;;;5.80;99.90;;;;;;5071840;28;20021;-62
2022/02/08 04:12:43;;;;;;;44.85;40.30;;;5.80;99.90;;;;;;5071704;28;20112;-63
2022/02/08 04:18:12;;;;;;;44.00;39.55;;;5.90;99.90;;;;;;5072037;28;20032;-64
2022/02/08 04:36:47;;;;;;;42.92;30.63;;;6.20;99.90;;;;;;5071610;28;20017;-63
2022/02/08 04:46:58;;;;;;;46.15;30.30;;;6.20;99.90;;;;;;5074943;28;20052;-63
2022/02/08 04:49:23;;;;;;;40.67;32.10;;;6.20;99.90;;;;;;5074905;28;20056;-61
2022/02/08 04:51:57;;;;;;;39.83;30.52;;;6.20;99.90;;;;;;5057054;28;20060;-65
2022/02/08 04:57:19;;;;;;;45.33;32.22;;;6.30;99.90;;;;;;5074912;28;20017;-62
2022/02/08 05:26:53;;;;;;;50.58;32.75;;;6.50;99.90;;;;;;5074894;28;20082;-63
2022/02/08 05:40:43;;;;;;;40.28;31.73;;;6.70;99.90;;;;;;5075283;28;20078;-62
2022/02/08 05:46:00;;;;;;;37.17;28.15;;;6.80;99.90;;;;;;5073771;28;20032;-63
2022/02/08 05:48:29;;;;;;;40.17;32.00;;;;;;;;;;5073952;28;20032;-58
2022/02/08 05:50:59;;;;;;;44.53;31.15;;;;;;;;;;5073761;28;20047;-63
2022/02/08 05:55:55;;;;;;;37.22;30.30;;;;;;;;;;5072993;28;20035;-64
2022/02/08 05:58:21;;;;;;;42.40;30.02;;;;;;;;;;5073275;28;20023;-64
2022/02/08 06:00:47;;;;;;;41.38;29.95;;;;;;;;;;5077446;28;20012;-64
2022/02/08 06:03:13;;;;;;;38.40;29.30;;;;;;;;;;5093105;28;20052;-63
2022/02/08 06:05:39;;;;;;;39.88;28.70;;;;;;;;;;5093155;28;20020;-63
2022/02/08 06:08:05;;;;;;;36.92;29.83;;;;;;;;;;5093430;28;20118;-64
2022/02/08 06:10:32;;;;;;;43.63;29.13;;;;;;;;;;5093247;28;20051;-63
2022/02/08 06:12:58;;;;;;;36.83;29.10;;;;;;;;;;5092326;28;20032;-65
2022/02/08 06:15:25;;;;;;;43.47;28.40;;;6.90;99.90;;;;;;5091322;28;20032;-63
2022/02/08 06:17:54;;;;;;;38.10;27.45;;;7.20;99.90;;;;;;5084200;28;20020;-65
2022/02/08 06:20:20;;;;;;;35.15;27.02;;;7.30;99.90;;;;;;5093088;28;20541;-62
2022/02/08 06:22:46;;;;;;;39.88;28.92;;;7.30;99.90;;;;;;5093343;28;20024;-64
2022/02/08 06:25:15;;;;;;;36.00;26.08;;;7.30;99.90;;;;;;5092810;28;20103;-63
2022/02/08 06:27:42;;;;;;;36.30;26.40;;;7.40;99.90;;;;;;5093153;28;20024;-63
2022/02/08 06:30:10;;;;;;;37.65;27.42;;;7.40;99.90;;;;;;5074803;28;20028;-62
2022/02/08 06:32:36;;;;;;;33.40;25.25;;;7.50;99.90;;;;;;5092803;28;20055;-64
2022/02/08 06:35:08;;;;;;;31.80;25.45;;;7.50;99.90;;;;;;5092660;28;20379;-64
2022/02/08 06:37:36;;;;;;;30.60;22.60;;;7.60;99.90;;;;;;5092994;28;20148;-64
2022/02/08 06:40:03;;;;;;;38.53;26.33;;;7.60;99.90;;;;;;5093105;28;20031;-65
2022/02/08 06:42:29;;;;;;;35.75;24.33;;;7.60;99.90;;;;;;5092794;28;20032;-63
2022/02/08 06:44:55;;;;;;;39.85;24.98;;;7.60;99.90;;;;;;5092350;28;20024;-64
2022/02/08 06:47:20;;;;;;;30.50;22.85;;;7.60;99.90;;;;;;5092108;28;20027;-63
2022/02/08 06:49:46;;;;;;;31.85;23.55;;;7.70;99.90;;;;;;5074429;28;20070;-61
2022/02/08 06:52:12;;;;;;;33.10;23.85;;;7.70;99.90;;;;;;5105094;22;20043;-63
2022/02/08 06:54:37;;;;;;;30.55;21.17;;;7.70;99.90;;;;;;5091553;28;20032;-60
2022/02/08 06:57:04;;;;;;;30.38;23.20;;;7.70;99.90;;;;;;5074177;28;20471;-63
2022/02/08 06:59:36;;;;;;;37.55;20.95;;;7.70;99.90;;;;;;5093235;28;20383;-62
2022/02/08 07:02:02;;;;;;;31.75;22.02;;;7.80;99.90;;;;;;5062894;28;20021;-58
2022/02/08 07:04:27;;;;;;;28.38;20.48;;;7.80;99.90;;;;;;5053080;28;20028;-63
2022/02/08 07:06:53;;;;;;;27.25;20.50;;;7.80;99.90;;;;;;5072408;28;20468;-64
2022/02/08 07:09:18;;;;;;;28.00;19.17;;;7.80;99.90;;;;;;5053990;28;20113;-63
2022/02/08 07:11:47;;;;;;;28.08;18.75;;;7.80;99.90;;;;;;5072149;28;20103;-64
2022/02/08 07:14:13;;;;;;;34.30;19.95;;;7.90;99.90;;;;;;5071532;28;20036;-62
2022/02/08 07:16:38;;;;;;;25.60;16.30;;;7.90;99.90;;;;;;5054060;28;20043;-62
2022/02/08 07:19:04;;;;;;;27.98;16.77;;;7.90;99.90;;;;;;5072402;28;20115;-58
2022/02/08 07:21:30;;;;;;;26.35;15.80;;;7.90;99.90;;;;;;5054262;28;20027;-63
2022/02/08 07:23:56;;;;;;;27.60;17.50;;;;;;;;;;5072645;28;20048;-64
2022/02/08 07:26:23;;;;;;;29.60;15.70;;;;;;;;;;5071751;28;20476;-63
2022/02/08 07:28:49;;;;;;;27.38;16.70;;;;;;;;;;5072693;28;20020;-60
2022/02/08 07:31:22;;;;;;;28.50;15.13;;;;;;;;;;5072659;28;20036;-64
2022/02/08 07:33:55;;;;;;;28.55;15.68;;;;;;;;;;5054295;28;20112;-58
2022/02/08 07:39:08;;;;;;;26.40;15.38;;;;;;;;;;5072593;28;20033;-64
2022/02/08 07:44:12;;;;;;;24.40;15.45;;;;;;;;;;5071873;28;20548;-60
2022/02/08 07:46:39;;;;;;;26.10;15.82;;;;;;;;;;5072805;28;20025;-59
2022/02/08 07:49:05;;;;;;;26.52;15.65;;;;;;;;;;5053873;28;20035;-64
2022/02/08 07:51:33;;;;;;;26.13;15.60;;;;;;;;;;5072083;28;20485;-63
2022/02/08 07:54:03;;;;;;;26.65;14.02;;;;;;;;;;5072006;28;20024;-63
2022/02/08 07:56:29;;;;;;;23.20;13.40;;;;;;;;;;5072084;28;20047;-63
2022/02/08 07:58:55;;;;;;;24.42;13.65;;;;;;;;;;5072060;28;20393;-61
2022/02/08 08:01:21;;;;;;;22.83;14.65;;;;;;;;;;5071819;28;20029;-64
2022/02/08 08:03:48;;;;;;;23.23;13.02;;;;;;;;;;5071637;28;20036;-63
2022/02/08 08:06:16;;;;;;;24.52;14.32;;;;;;;;;;5072234;28;20027;-64
2022/02/08 08:08:42;;;;;;;24.45;14.38;;;;;;;;;;5054298;28;20024;-63
2022/02/08 08:11:18;;;;;;;24.08;14.07;;;;;;;;;;5072035;28;20058;-65
2022/02/08 08:13:51;;;;;;;28.38;13.82;;;;;;;;;;5071764;28;20028;-64
2022/02/08 08:19:02;;;;;;;22.92;12.75;;;;;;;;;;5076027;28;20032;-64
2022/02/08 08:21:29;;;;;;;25.73;14.27;;;;;;;;;;5075919;28;20542;-62
2022/02/08 08:23:55;;;;;;;25.35;15.38;;;;;;;;;;5057630;28;20027;-64
2022/02/08 08:26:21;;;;;;;23.25;13.13;;;;;;;;;;5075300;28;20024;-63
2022/02/08 08:28:47;;;;;;;24.77;12.82;;;;;;;;;;5075480;28;20123;-65
2022/02/08 08:31:14;;;;;;;25.73;13.73;;;;;;;;;;5075520;28;20433;-64
2022/02/08 08:33:40;;;;;;;25.38;13.05;;;;;;;;;;5057375;28;20060;-63
2022/02/08 08:36:06;;;;;;;21.73;11.27;;;;;;;;;;5075097;28;20032;-64
2022/02/08 08:38:33;;;;;;;25.77;13.57;;;;;;;;;;5057281;28;20111;-62
2022/02/08 08:51:44;;;;;;;;;;;;;;;;;;;;;
2022/02/08 08:54:08;;;;;;;24.17;12.02;;;;;;;;;;5075305;28;20033;-63
2022/02/08 08:56:42;;;;;;;28.98;13.63;;;;;;;;;;5075815;28;20025;-64
2022/02/08 08:59:09;;;;;;;23.90;13.70;;;;;;;;;;5075424;28;20017;-63
2022/02/08 09:01:35;;;;;;;26.33;13.38;;;;;;;;;;5075224;28;20016;-61
2022/02/08 09:04:02;;;;;;;21.95;11.52;;;;;;;;;;5075088;28;20024;-63
2022/02/08 09:06:28;;;;;;;23.52;12.23;;;;;;;;;;5075137;28;20048;-63
2022/02/08 09:08:55;;;;;;;24.70;12.30;;;;;;;;;;5075458;28;20048;-63
2022/02/08 09:16:33;;;;;;;26.73;11.85;;;;;;;;;;5075087;28;20028;-63
2022/02/08 09:27:51;;;;;;;24.35;11.88;;;;;;;;;;5074474;28;20104;-66
2022/02/08 09:30:57;;;;;;;24.00;11.63;;;;;;;;;;4722548;28;9999792;-66
2022/02/08 09:32:58;;;;;;;26.55;10.85;;;;;;;;;;5051873;28;20054;-65
2022/02/08 09:35:24;;;;;;;23.13;11.13;;;;;;;;;;5058432;28;20029;-65
2022/02/08 09:37:50;;;;;;;23.58;12.00;;;;;;;;;;5051939;28;20405;-66
2022/02/08 09:40:19;;;;;;;23.20;10.98;;;;;;;;;;5069966;28;20131;-62
2022/02/08 09:42:46;;;;;;;22.63;10.93;;;;;;;;;;5071113;28;20027;-64
2022/02/08 09:45:17;;;;;;;22.75;11.63;;;;;;;;;;5071609;28;20032;-64
2022/02/08 09:47:54;;;;;;;24.17;11.93;;;;;;;;;;5045246;28;20032;-64
2022/02/08 09:50:24;;;;;;;20.00;10.45;;;;;;;;;;5073234;28;20052;-63
2022/02/08 09:52:53;;;;;;;23.92;10.60;;;;;;;;;;5074791;28;20115;-64
2022/02/08 09:55:20;;;;;;;25.20;12.50;;;;;;;;;;5075797;28;20032;-63
2022/02/08 09:57:47;;;;;;;21.45;10.65;;;;;;;;;;5072795;28;20052;-63
2022/02/08 10:00:13;;;;;;;23.45;10.48;;;;;;;;;;5053482;28;20021;-64
2022/02/08 10:02:39;;;;;;;21.38;10.95;;;;;;;;;;5059612;28;20465;-63
2022/02/08 10:05:08;;;;;;;20.05;10.23;;;;;;;;;;5054096;28;20045;-64
2022/02/08 10:07:34;;;;;;;24.90;12.30;;;;;;;;;;5050039;28;20022;-63
2022/02/08 10:10:01;;;;;;;19.00;10.02;;;;;;;;;;5050436;28;20037;-63
2022/02/08 10:12:47;;;;;;;25.58;11.63;;;;;;;;;;5050687;28;20736;-63
2022/02/08 10:23:53;;;;;;;22.35;10.60;;;;;;;;;;4988498;28;20035;-64
2022/02/08 10:26:27;;;;;;;24.20;11.13;;;;;;;;;;5024606;28;20037;-65
2022/02/08 10:29:00;;;;;;;22.95;10.27;;;7.90;99.90;;;;;;5050750;28;20060;-64
2022/02/08 10:31:58;;;;;;;23.42;10.50;;;9.70;99.90;;;;;;5064989;28;20029;-63
2022/02/08 10:40:08;;;;;;;22.45;10.40;;;9.70;99.90;;;;;;5070205;28;20032;-67
2022/02/08 10:42:35;;;;;;;23.75;11.18;;;9.80;99.90;;;;;;5052999;28;20488;-61
2022/02/08 10:45:03;;;;;;;24.17;10.93;;;9.70;99.90;;;;;;5052694;28;20476;-62
2022/02/08 10:47:36;;;;;;;22.07;10.97;;;;;;;;;;5073587;28;20040;-62
2022/02/08 10:50:03;;;;;;;25.92;10.63;;;;;;;;;;5055398;28;20035;-61
2022/02/08 10:52:30;;;;;;;21.48;10.20;;;;;;;;;;5072941;28;20032;-62
2022/02/08 10:55:01;;;;;;;21.40;9.35;;;;;;;;;;5073534;28;20048;-61
2022/02/08 10:57:39;;;;;;;25.25;10.90;;;;;;;;;;5073746;28;20024;-63
2022/02/08 11:00:06;;;;;;;28.85;11.15;;;;;;;;;;5055932;28;20103;-60
2022/02/08 11:02:41;;;;;;;20.92;9.88;;;;;;;;;;5045096;28;20114;-62
2022/02/08 11:10:26;;;;;;;25.30;10.77;;;;;;;;;;5073549;28;20020;-62
2022/02/08 11:13:18;;;;;;;20.00;9.85;;;;;;;;;;5073812;28;20031;-60
2022/02/08 11:20:49;;;;;;;22.50;10.90;;;;;;;;;;5073477;28;20473;-60
2022/02/08 11:23:33;;;;;;;22.63;10.60;;;;;;;;;;5072967;28;20032;-60
2022/02/08 11:26:01;;;;;;;21.20;9.75;;;;;;;;;;5072826;28;20127;-61
2022/02/08 11:28:48;;;;;;;22.42;10.35;;;;;;;;;;5073037;28;20082;-59
2022/02/08 11:31:29;;;;;;;22.15;10.25;;;;;;;;;;5072650;28;20050;-61
2022/02/08 11:47:14;;;;;;;23.40;10.30;;;;;;;;;;5072223;28;20029;-66
2022/02/08 11:52:41;;;;;;;22.05;9.80;;;;;;;;;;5072701;28;20046;-65
2022/02/08 11:55:49;;;;;;;19.98;9.30;;;;;;;;;;5072235;28;20028;-65
2022/02/08 11:58:25;;;;;;;;;;;;;;;;;;5072848;28;20070;-66
2022/02/08 12:01:01;;;;;;;21.88;10.43;;;;;;;;;;5073744;28;19905;-66
2022/02/08 12:08:55;;;;;;;19.88;9.10;;;;;;;;;;5058982;28;20500;-66
2022/02/08 12:11:44;;;;;;;22.75;9.25;;;;;;;;;;5072025;28;20056;-66
2022/02/08 12:55:43;;;;;;;20.83;9.20;;;;;;;;;;5090658;28;20024;-63
2022/02/08 13:03:58;;;;;;;19.75;8.02;;;;;;;;;;5012369;28;20034;-67
2022/02/08 14:06:12;;;;;;;18.73;8.07;;;;;;;;;;5051866;28;20028;-61
2022/02/08 14:11:45;;;;;;;19.50;8.52;;;;;;;;;;5093557;28;20036;-59
2022/02/08 14:19:37;;;;;;;18.83;7.88;;;;;;;;;;5093092;28;20053;-58
2022/02/08 14:30:15;;;;;;;20.23;9.27;;;;;;;;;;5090401;28;20546;-59
2022/02/08 14:33:00;;;;;;;19.48;8.30;;;;;;;;;;5092981;28;20030;-57
2022/02/08 15:10:14;;;;;;;20.38;10.73;;;;;;;;;;5093284;28;20024;-60
2022/02/08 15:12:42;;;;;;;22.83;11.73;;;;;;;;;;5093013;28;20051;-58
2022/02/08 15:15:23;;;;;;;23.65;11.68;;;;;;;;;;5074371;28;20016;-59
2022/02/08 15:17:49;;;;;;;22.13;12.40;;;;;;;;;;5092758;28;20051;-60
2022/02/08 15:20:15;;;;;;;21.13;12.55;;;;;;;;;;5093041;28;20024;-55
2022/02/08 15:22:41;;;;;;;22.63;14.15;;;;;;;;;;5083903;28;20043;-59
2022/02/08 15:25:12;;;;;;;22.60;13.30;;;;;;;;;;5053787;28;20021;-55
2022/02/08 15:27:39;;;;;;;23.20;13.80;;;;;;;;;;5072313;28;20066;-55
2022/02/08 15:30:06;;;;;;;23.02;12.90;;;;;;;;;;5054188;28;20021;-57
2022/02/08 15:32:34;;;;;;;24.20;13.97;;;;;;;;;;5072383;28;20031;-61
2022/02/08 15:35:00;;;;;;;25.85;16.13;;;;;;;;;;5054587;28;20470;-55
2022/02/08 15:37:30;;;;;;;23.42;13.77;;;;;;;;;;5072400;28;20100;-60
2022/02/08 15:39:57;;;;;;;23.45;14.02;;;;;;;;;;5072080;28;20491;-57
2022/02/08 15:42:30;;;;;;;23.77;15.07;;;;;;;;;;5070631;28;20020;-59
2022/02/08 15:44:57;;;;;;;40.20;17.88;;;;;;;;;;5070827;28;20469;-58
2022/02/08 15:47:23;;;;;;;28.30;15.68;;;;;;;;;;5078984;28;20389;-60
2022/02/08 15:49:58;;;;;;;23.83;14.15;;;;;;;;;;5082285;28;20434;-59
2022/02/08 15:52:59;;;;;;;25.30;16.33;;;;;;;;;;5053804;28;20036;-61
2022/02/08 16:01:14;;;;;;;25.10;16.67;;;;;;;;;;5074448;28;20066;-58
2022/02/08 16:09:10;;;;;;;29.45;17.02;;;;;;;;;;5088445;28;20527;-60
2022/02/08 16:24:27;;;;;;;25.08;18.98;;;;;;;;;;5070750;28;20035;-58
2022/02/08 16:32:11;;;;;;;25.45;20.45;;;;;;;;;;5071129;28;20466;-56
2022/02/08 16:53:41;;;;;;;31.02;23.38;;;;;;;;;;5074794;28;20094;-56
2022/02/08 16:56:49;;;;;;;37.97;24.52;;;;;;;;;;5075047;28;20017;-54
2022/02/08 16:58:55;;;;;;;31.90;24.40;;;;;;;;;;5088420;28;20066;-55
2022/02/08 17:01:28;;;;;;;32.17;23.80;;;;;;;;;;5093421;28;20480;-53
2022/02/08 17:03:54;;;;;;;34.47;24.90;;;;;;;;;;5074740;28;20036;-53
2022/02/08 17:06:24;;;;;;;33.50;24.67;;;;;;;;;;5074220;28;20103;-53
2022/02/08 17:08:59;;;;;;;32.63;23.60;;;;;;;;;;5074811;28;20549;-52
2022/02/08 17:11:35;;;;;;;30.05;22.73;;;;;;;;;;5074952;28;20036;-58
2022/02/08 17:46:22;;;;;;;31.77;26.48;;;;;;;;;;5073953;28;20043;-62
2022/02/08 17:48:50;;;;;;;36.50;25.23;;;;;;;;;;4372340;28;10000262;-64
2022/02/08 17:51:18;;;;;;;38.75;26.10;;;;;;;;;;5070731;28;20033;-62
2022/02/08 17:53:45;;;;;;;36.45;26.92;;;;;;;;;;5070444;28;20537;-63
2022/02/08 17:56:14;;;;;;;31.50;23.25;;;;;;;;;;5062276;28;20588;-63
2022/02/08 17:58:40;;;;;;;33.90;26.10;;;;;;;;;;5090880;28;20062;-63
2022/02/08 18:01:07;;;;;;;33.30;26.38;;;;;;;;;;5072393;28;20028;-62
2022/02/08 18:03:33;;;;;;;29.63;25.83;;;;;;;;;;5071077;28;20024;-62
2022/02/08 18:05:59;;;;;;;36.08;25.25;;;;;;;;;;5070646;28;20024;-63
2022/02/08 18:08:26;;;;;;;36.22;32.35;;;;;;;;;;5079685;28;20090;-63
2022/02/08 18:10:57;;;;;;;34.13;29.45;;;;;;;;;;5091062;28;20051;-63
2022/02/08 18:13:26;;;;;;;33.72;27.55;;;;;;;;;;5088605;28;20028;-63
2022/02/08 18:15:52;;;;;;;34.05;27.90;;;;;;;;;;5063621;28;20021;-64
2022/02/08 18:18:26;;;;;;;35.90;27.20;;;;;;;;;;5090195;28;20028;-62
2022/02/08 18:20:56;;;;;;;33.05;25.40;;;;;;;;;;5090830;28;20648;-63
2022/02/08 18:28:52;;;;;;;30.48;23.02;;;;;;;;;;5081693;28;20036;-64
2022/02/08 19:04:38;;;;;;;26.90;20.02;;;;;;;;;;5089689;28;20031;-61
2022/02/08 19:11:54;;;;;;;28.23;19.42;;;;;;;;;;5089544;28;20471;-65
2022/02/08 19:20:09;;;;;;;25.08;17.67;;;;;;;;;;5088914;28;20016;-63
2022/02/08 19:22:35;;;;;;;30.58;18.52;;;;;;;;;;5091471;28;20052;-64
2022/02/08 19:25:01;;;;;;;28.55;17.77;;;;;;;;;;5091534;28;20515;-63
2022/02/08 19:27:27;;;;;;;27.95;16.92;;;;;;;;;;5091817;28;20028;-64
2022/02/08 19:29:53;;;;;;;36.83;17.42;;;;;;;;;;4721386;28;10000122;-66
2022/02/08 19:32:20;;;;;;;26.58;16.42;;;;;;;;;;5068507;28;20052;-65
2022/02/08 19:34:46;;;;;;;27.92;15.15;;;;;;;;;;5068724;28;20115;-66
2022/02/08 19:37:14;;;;;;;30.27;15.25;;;;;;;;;;5076012;28;20431;-64
2022/02/08 19:39:41;;;;;;;27.13;14.45;;;;;;;;;;5060613;28;20016;-59
2022/02/08 19:42:08;;;;;;;24.80;14.90;;;;;;;;;;5058976;28;20033;-64
2022/02/08 19:44:34;;;;;;;24.02;14.98;;;;;;;;;;5078087;28;20023;-62
2022/02/08 19:47:02;;;;;;;29.55;15.00;;;;;;;;;;5079566;28;20639;-63
2022/02/08 19:49:28;;;;;;;25.90;14.43;;;;;;;;;;5077374;28;20115;-63
2022/02/08 19:51:54;;;;;;;24.70;14.60;;;;;;;;;;5078414;28;20475;-62
2022/02/08 19:54:24;;;;;;;26.60;14.82;;;;;;;;;;5078522;28;20027;-63
2022/02/08 19:57:00;;;;;;;25.33;13.88;;;;;;;;;;5061294;28;20497;-63
2022/02/08 19:59:37;;;;;;;24.77;13.70;;;;;;;;;;5081525;28;20027;-62
2022/02/08 20:02:06;;;;;;;22.13;12.98;;;;;;;;;;5080005;28;20016;-63
2022/02/08 20:04:33;;;;;;;24.73;12.80;;;;;;;;;;5057594;28;20024;-63
2022/02/08 20:06:59;;;;;;;22.98;12.40;;;;;;;;;;5078793;28;20020;-63
2022/02/08 20:09:26;;;;;;;23.67;13.27;;;;;;;;;;5077623;28;20036;-64
2022/02/08 20:11:52;;;;;;;24.15;12.80;;;;;;;;;;5081083;28;20027;-64
2022/02/08 20:14:19;;;;;;;23.65;12.57;;;;;;;;;;5081560;28;20115;-61
2022/02/08 20:16:45;;;;;;;20.13;12.05;;;;;;;;;;5062994;28;20024;-63
2022/02/08 20:19:13;;;;;;;22.50;12.43;;;;;;;;;;5080408;28;20035;-63
2022/02/08 20:21:39;;;;;;;24.00;13.65;;;;;;;;;;5080614;28;20131;-63
2022/02/08 20:24:08;;;;;;;24.10;13.60;;;;;;;;;;5082850;28;20032;-63
2022/02/08 20:26:55;;;;;;;25.00;13.05;;;;;;;;;;5081755;28;20021;-64
2022/02/08 20:29:23;;;;;;;24.08;12.10;;;;;;;;;;5074942;28;20037;-63
2022/02/08 20:31:50;;;;;;;;;;;;;;;;;;5089114;28;20020;-64
2022/02/08 20:34:16;;;;;;;23.02;12.60;;;;;;;;;;5092352;28;20422;-61
2022/02/08 20:36:43;;;;;;;23.58;12.23;;;;;;;;;;5092398;28;20024;-59
2022/02/08 20:39:09;;;;;;;23.55;12.85;;;;;;;;;;5074810;28;20032;-60
2022/02/08 20:41:35;;;;;;;23.23;12.20;;;;;;;;;;5059675;28;20031;-62
2022/02/08 20:44:02;;;;;;;23.83;12.70;;;;;;;;;;5062521;28;20032;-57
2022/02/08 20:46:30;;;;;;;21.92;11.80;;;;;;;;;;5075880;28;20039;-58
2022/02/08 20:48:56;;;;;;;24.48;12.30;;;;;;;;;;5080619;28;20794;-61
2022/02/08 20:51:27;;;;;;;24.58;12.48;;;;;;;;;;5079066;28;20024;-63
2022/02/08 20:53:55;;;;;;;24.42;12.88;;;;;;;;;;5082456;28;20108;-57
2022/02/08 20:56:35;;;;;;;24.73;13.18;;;;;;;;;;5063351;28;20427;-60
2022/02/08 20:59:07;;;;;;;24.02;12.68;;;;;;;;;;5076939;28;20078;-62
2022/02/08 21:01:52;;;;;;;25.90;13.48;;;;;;;;;;5056869;28;20391;-60
2022/02/08 21:06:44;;;;;;;24.65;14.13;;;;;;;;;;5071703;28;20480;-60
2022/02/08 21:09:13;;;;;;;22.67;12.70;;;;;;;;;;5071582;28;20024;-61
2022/02/08 21:11:43;;;;;;;22.83;12.75;;;;;;;;;;5092585;23;20123;-65
2022/02/08 21:14:11;;;;;;;26.42;12.15;;;;;;;;;;5070029;28;20139;-67
2022/02/08 21:16:41;;;;;;;22.52;12.68;;;;;;;;;;5071602;28;20031;-67
2022/02/08 21:19:08;;;;;;;21.65;12.65;;;;;;;;;;5073157;28;20082;-65
2022/02/08 21:21:34;;;;;;;23.02;12.82;;;;;;;;;;5073020;28;20021;-60
2022/02/08 21:24:01;;;;;;;22.92;11.65;;;;;;;;;;5056949;28;20460;-64
2022/02/08 21:26:36;;;;;;;22.98;12.02;;;;;;;;;;5055111;28;20021;-64
2022/02/08 21:53:32;;;;;;;18.23;9.10;;;;;;;;;;5053352;28;20505;-65
2022/02/08 21:56:01;;;;;;;22.30;8.90;;;;;;;;;;5065608;28;20024;-67
2022/02/08 21:58:29;;;;;;;21.30;8.63;;;;;;;;;;5065466;28;20439;-65
2022/02/08 22:00:56;;;;;;;;;;;;;;;;;;5061245;28;20028;-66
2022/02/08 22:03:22;;;;;;;19.05;8.20;;;;;;;;;;5060944;28;19908;-65
2022/02/08 22:05:48;;;;;;;20.50;8.65;;;;;;;;;;5057836;28;20021;-60
2022/02/08 22:08:22;;;;;;;19.90;9.23;;;;;;;;;;5056311;28;20017;-63
2022/02/08 22:18:42;;;;;;;20.20;8.70;;;;;;;;;;5058687;28;20038;-62
2022/02/08 22:34:17;;;;;;;20.90;9.18;;;;;;;;;;5063180;28;20070;-65
2022/02/08 22:36:53;;;;;;;19.48;9.18;;;;;;;;;;5069538;28;20083;-64